createdAt,value
2018-03-14T00:02:26.443Z,14.15
2018-03-14T00:04:54.839Z,13.57
2018-03-14T00:07:23.246Z,10.57
2018-03-14T00:09:51.648Z,12.73
2018-03-14T00:12:20.176Z,14.07
2018-03-14T00:14:48.696Z,12.43
2018-03-14T00:17:17.116Z,14.02
2018-03-14T00:19:45.628Z,19.70
2018-03-14T00:22:25.617Z,14.63
2018-03-14T00:24:54.059Z,17.87
2018-03-14T00:27:22.467Z,17.25
2018-03-14T00:29:50.889Z,12.18
2018-03-14T00:32:20.740Z,10.68
2018-03-14T00:34:49.228Z,12.55
2018-03-14T00:37:17.718Z,12.07
2018-03-14T00:39:46.148Z,13.85
2018-03-14T00:42:14.559Z,16.50
2018-03-14T00:44:42.964Z,18.35
2018-03-14T00:47:11.396Z,16.12
2018-03-14T00:49:39.793Z,16.10
2018-03-14T00:52:08.208Z,16.58
2018-03-14T00:54:36.609Z,17.00
2018-03-14T00:57:05.103Z,17.75
2018-03-14T00:59:33.541Z,15.32
2018-03-14T01:02:02.259Z,16.52
2018-03-14T01:04:30.764Z,14.02
2018-03-14T01:06:59.191Z,15.18
2018-03-14T01:09:27.600Z,18.80
2018-03-14T01:11:56.024Z,20.27
2018-03-14T01:14:24.520Z,23.77
2018-03-14T01:16:52.931Z,15.00
2018-03-14T01:19:21.312Z,16.42
2018-03-14T01:21:49.691Z,16.27
2018-03-14T01:24:18.107Z,15.25
2018-03-14T01:26:46.501Z,14.52
2018-03-14T01:29:14.892Z,12.77
2018-03-14T01:31:43.331Z,16.65
2018-03-14T01:34:11.748Z,14.25
2018-03-14T01:36:40.158Z,14.75
2018-03-14T01:39:08.578Z,12.77
2018-03-14T01:41:37.000Z,14.20
2018-03-14T01:44:05.427Z,15.55
2018-03-14T01:46:33.816Z,17.70
2018-03-14T01:49:02.202Z,12.25
2018-03-14T01:51:30.640Z,11.85
2018-03-14T01:53:59.020Z,13.82
2018-03-14T01:56:27.406Z,12.55
2018-03-14T01:58:55.931Z,13.45
2018-03-14T02:01:24.478Z,15.05
2018-03-14T02:03:52.869Z,14.43
2018-03-14T02:06:21.284Z,17.23
2018-03-14T02:08:49.669Z,17.12
2018-03-14T02:11:18.103Z,16.45
2018-03-14T02:13:46.472Z,14.70
2018-03-14T02:16:14.944Z,10.93
2018-03-14T02:18:43.304Z,10.32
2018-03-14T02:21:11.706Z,12.00
2018-03-14T02:23:40.083Z,8.90
2018-03-14T02:26:08.477Z,7.25
2018-03-14T02:28:37.035Z,4.28
2018-03-14T02:31:05.409Z,3.17
2018-03-14T02:33:33.819Z,4.62
2018-03-14T02:36:02.207Z,4.55
2018-03-14T02:38:30.616Z,2.50
2018-03-14T02:40:59.025Z,3.37
2018-03-14T02:43:27.396Z,3.20
2018-03-14T02:45:55.780Z,3.67
2018-03-14T02:48:24.135Z,3.08
2018-03-14T02:50:52.530Z,4.40
2018-03-14T02:53:20.881Z,3.85
2018-03-14T02:55:49.293Z,2.50
2018-03-14T02:58:17.663Z,4.75
2018-03-14T03:00:46.035Z,2.10
2018-03-14T03:03:14.408Z,2.35
2018-03-14T03:05:42.832Z,2.40
2018-03-14T03:08:11.627Z,2.50
2018-03-14T03:10:39.992Z,2.37
2018-03-14T03:13:08.374Z,1.62
2018-03-14T03:15:36.743Z,1.80
2018-03-14T03:18:05.103Z,1.65
2018-03-14T03:20:33.536Z,1.50
2018-03-14T03:23:01.918Z,1.35
2018-03-14T03:25:30.280Z,1.48
2018-03-14T03:27:58.635Z,1.48
2018-03-14T03:30:27.101Z,1.55
2018-03-14T03:32:55.623Z,2.20
2018-03-14T03:35:23.985Z,2.17
2018-03-14T03:37:52.374Z,3.50
2018-03-14T03:40:20.732Z,2.15
2018-03-14T03:42:49.128Z,1.75
2018-03-14T03:45:17.648Z,1.67
2018-03-14T03:47:46.036Z,1.80
2018-03-14T03:50:14.403Z,1.70
2018-03-14T03:52:42.752Z,2.20
2018-03-14T03:55:11.105Z,1.92
2018-03-14T03:57:39.491Z,1.70
2018-03-14T04:00:30.832Z,2.35
2018-03-14T04:02:59.228Z,2.90
2018-03-14T04:05:27.648Z,2.80
2018-03-14T04:07:55.986Z,4.85
2018-03-14T04:10:24.393Z,3.78
2018-03-14T04:12:54.139Z,5.85
2018-03-14T04:15:22.589Z,11.90
2018-03-14T04:17:50.985Z,12.52
2018-03-14T04:20:19.388Z,12.10
2018-03-14T04:22:47.759Z,17.00
2018-03-14T04:25:16.177Z,16.62
2018-03-14T04:27:44.628Z,15.70
2018-03-14T04:30:13.064Z,18.00
2018-03-14T04:32:41.532Z,17.65
2018-03-14T04:35:09.905Z,16.23
2018-03-14T04:37:38.303Z,17.73
2018-03-14T04:40:06.758Z,18.65
2018-03-14T04:42:35.166Z,17.73
2018-03-14T04:45:03.563Z,20.02
2018-03-14T04:47:32.174Z,18.30
2018-03-14T04:50:00.577Z,20.33
2018-03-14T04:52:29.034Z,16.70
2018-03-14T04:54:57.404Z,24.40
2018-03-14T04:57:25.823Z,20.90
2018-03-14T04:59:54.228Z,19.83
2018-03-14T05:02:22.628Z,21.67
2018-03-14T05:04:51.496Z,23.05
2018-03-14T05:07:19.895Z,24.15
2018-03-14T05:09:48.300Z,25.23
2018-03-14T05:12:16.694Z,25.25
2018-03-14T05:14:45.093Z,26.58
2018-03-14T05:17:13.935Z,31.27
2018-03-14T05:19:42.405Z,28.83
2018-03-14T05:22:10.815Z,30.65
2018-03-14T05:24:39.288Z,29.92
2018-03-14T05:27:07.671Z,27.48
2018-03-14T05:29:36.152Z,24.33
2018-03-14T05:32:04.561Z,25.83
2018-03-14T05:34:32.973Z,27.17
2018-03-14T05:37:01.405Z,29.80
2018-03-14T05:39:29.808Z,30.30
2018-03-14T05:41:58.281Z,31.02
2018-03-14T05:44:27.046Z,27.90
2018-03-14T05:46:55.445Z,22.30
2018-03-14T05:49:23.817Z,26.12
2018-03-14T05:51:52.229Z,23.05
2018-03-14T05:54:20.613Z,28.85
2018-03-14T05:56:49.085Z,23.60
2018-03-14T05:59:17.521Z,23.20
2018-03-14T06:01:46.019Z,25.92
2018-03-14T06:04:14.427Z,24.35
2018-03-14T06:06:42.890Z,28.02
2018-03-14T06:09:11.327Z,23.52
2018-03-14T06:11:39.756Z,23.73
2018-03-14T06:14:08.267Z,19.55
2018-03-14T06:16:36.662Z,20.45
2018-03-14T06:19:05.064Z,22.17
2018-03-14T06:21:33.484Z,23.23
2018-03-14T06:24:01.912Z,21.27
2018-03-14T06:26:30.303Z,21.62
2018-03-14T06:28:58.884Z,23.98
2018-03-14T06:31:27.294Z,25.80
2018-03-14T06:33:55.796Z,22.90
2018-03-14T06:36:24.187Z,22.95
2018-03-14T06:38:52.594Z,22.52
2018-03-14T06:41:21.067Z,24.37
2018-03-14T06:43:49.477Z,28.83
2018-03-14T06:46:17.970Z,31.52
2018-03-14T06:48:46.375Z,32.88
2018-03-14T06:51:14.771Z,30.83
2018-03-14T06:53:43.172Z,31.90
2018-03-14T06:56:11.567Z,32.72
2018-03-14T06:58:51.829Z,28.30
2018-03-14T07:01:31.964Z,30.83
2018-03-14T07:04:12.338Z,34.17
2018-03-14T07:06:40.745Z,33.45
2018-03-14T07:09:09.175Z,30.65
2018-03-14T07:11:37.568Z,28.98
2018-03-14T07:14:06.019Z,39.05
2018-03-14T07:16:34.472Z,35.97
2018-03-14T07:19:02.884Z,33.58
2018-03-14T07:21:31.383Z,38.65
2018-03-14T07:23:59.795Z,33.95
2018-03-14T07:26:28.195Z,41.20
2018-03-14T07:28:56.616Z,40.70
2018-03-14T07:31:25.025Z,35.03
2018-03-14T07:33:53.593Z,36.25
2018-03-14T07:36:21.998Z,38.45
2018-03-14T07:38:50.388Z,40.08
2018-03-14T07:41:18.889Z,40.33
2018-03-14T07:43:47.304Z,41.13
2018-03-14T07:46:15.809Z,41.10
2018-03-14T07:48:44.206Z,42.78
2018-03-14T07:51:12.622Z,42.85
2018-03-14T07:53:41.042Z,39.20
2018-03-14T07:56:09.436Z,36.90
2018-03-14T07:58:37.852Z,44.10
2018-03-14T08:01:06.294Z,40.47
2018-03-14T08:03:34.716Z,39.13
2018-03-14T08:06:03.112Z,40.75
2018-03-14T08:08:31.520Z,41.15
2018-03-14T08:10:59.927Z,32.60
2018-03-14T08:13:28.414Z,34.78
2018-03-14T08:15:56.912Z,38.30
2018-03-14T08:21:12.487Z,35.78
2018-03-14T08:23:40.897Z,35.90
2018-03-14T08:26:09.300Z,35.45
2018-03-14T08:28:37.780Z,33.17
2018-03-14T08:31:06.197Z,35.67
2018-03-14T08:33:34.671Z,36.30
2018-03-14T08:36:03.055Z,35.00
2018-03-14T08:38:31.472Z,34.70
2018-03-14T08:40:59.894Z,36.90
2018-03-14T08:43:28.301Z,35.50
2018-03-14T08:45:56.767Z,31.25
2018-03-14T08:48:25.172Z,33.90
2018-03-14T08:50:53.580Z,24.37
2018-03-14T08:53:21.993Z,33.10
2018-03-14T08:55:50.416Z,34.10
2018-03-14T08:58:18.868Z,32.70
2018-03-14T09:00:47.272Z,30.37
2018-03-14T09:03:15.676Z,29.67
2018-03-14T09:05:44.077Z,29.77
2018-03-14T09:08:12.491Z,34.37
2018-03-14T09:10:41.040Z,33.50
2018-03-14T09:13:09.432Z,29.23
2018-03-14T09:15:37.921Z,28.07
2018-03-14T09:18:06.337Z,29.60
2018-03-14T09:20:34.750Z,28.70
2018-03-14T09:23:03.403Z,26.23
2018-03-14T09:25:31.805Z,36.53
2018-03-14T09:28:00.196Z,33.80
2018-03-14T09:30:28.594Z,31.50
2018-03-14T09:32:56.983Z,38.20
2018-03-14T09:35:25.548Z,26.80
2018-03-14T09:37:53.944Z,29.47
2018-03-14T09:40:22.350Z,31.33
2018-03-14T09:42:50.740Z,32.60
2018-03-14T09:45:19.157Z,29.30
2018-03-14T09:47:47.614Z,31.83
2018-03-14T09:50:16.945Z,30.77
2018-03-14T09:52:45.426Z,30.87
2018-03-14T09:55:14.215Z,27.70
2018-03-14T09:57:43.060Z,31.20
2018-03-14T10:00:12.059Z,35.37
2018-03-14T10:02:40.851Z,30.47
2018-03-14T10:05:09.839Z,29.10
2018-03-14T10:07:38.886Z,25.27
2018-03-14T10:10:07.696Z,28.97
2018-03-14T10:12:36.453Z,26.77
2018-03-14T10:15:04.840Z,27.70
2018-03-14T10:17:33.264Z,27.23
2018-03-14T10:20:01.679Z,30.27
2018-03-14T10:22:30.125Z,33.13
2018-03-14T10:24:58.592Z,31.43
2018-03-14T10:27:27.007Z,25.87
2018-03-14T10:29:55.412Z,30.03
2018-03-14T10:32:23.815Z,29.40
2018-03-14T10:34:52.251Z,23.30
2018-03-14T10:37:20.705Z,26.43
2018-03-14T10:39:49.103Z,26.30
2018-03-14T10:42:17.510Z,28.67
2018-03-14T10:44:45.910Z,25.57
2018-03-14T10:47:14.323Z,23.63
2018-03-14T10:49:42.796Z,19.83
2018-03-14T10:52:11.214Z,20.80
2018-03-14T10:54:39.599Z,28.63
2018-03-14T10:57:08.018Z,28.30
2018-03-14T10:59:36.435Z,29.97
2018-03-14T11:02:10.506Z,28.07
2018-03-14T11:04:38.907Z,25.40
2018-03-14T11:07:07.327Z,21.70
2018-03-14T11:09:35.727Z,28.20
2018-03-14T11:12:05.248Z,29.07
2018-03-14T11:14:33.656Z,23.10
2018-03-14T11:17:02.170Z,25.30
2018-03-14T11:19:30.563Z,22.30
2018-03-14T11:21:59.023Z,30.83
2018-03-14T11:24:27.468Z,28.67
2018-03-14T11:26:55.976Z,21.80
2018-03-14T11:29:24.408Z,20.67
2018-03-14T11:31:52.802Z,20.40
2018-03-14T11:34:21.188Z,21.43
2018-03-14T11:36:49.718Z,28.23
2018-03-14T11:39:18.139Z,21.60
2018-03-14T11:41:46.544Z,22.63
2018-03-14T11:44:14.951Z,22.40
2018-03-14T11:46:43.425Z,18.17
2018-03-14T11:49:11.956Z,20.10
2018-03-14T11:51:40.283Z,20.47
2018-03-14T11:54:08.777Z,16.87
2018-03-14T11:56:37.189Z,17.33
2018-03-14T11:59:05.599Z,19.63
2018-03-14T12:01:34.058Z,20.07
2018-03-14T12:04:02.475Z,22.03
2018-03-14T12:06:30.857Z,23.53
2018-03-14T12:08:59.257Z,22.27
2018-03-14T12:11:27.650Z,18.10
2018-03-14T12:13:56.137Z,18.80
2018-03-14T12:16:24.749Z,22.97
2018-03-14T12:18:53.217Z,19.20
2018-03-14T12:21:21.657Z,25.60
2018-03-14T12:23:50.651Z,14.70
2018-03-14T12:26:19.263Z,17.17
2018-03-14T12:28:47.622Z,17.20
2018-03-14T12:31:16.076Z,13.23
2018-03-14T12:33:44.472Z,13.47
2018-03-14T12:36:12.875Z,15.30
2018-03-14T12:38:41.370Z,16.73
2018-03-14T12:41:09.755Z,19.87
2018-03-14T12:43:38.177Z,18.00
2018-03-14T12:46:06.581Z,19.40
2018-03-14T12:48:34.986Z,13.10
2018-03-14T12:51:03.591Z,13.33
2018-03-14T12:53:31.994Z,17.20
2018-03-14T12:56:00.396Z,16.30
2018-03-14T12:58:28.804Z,14.20
2018-03-14T13:00:57.207Z,14.63
2018-03-14T13:03:25.664Z,14.13
2018-03-14T13:05:54.085Z,14.00
2018-03-14T13:08:22.475Z,13.30
2018-03-14T13:10:50.863Z,13.77
2018-03-14T13:13:19.270Z,12.90
2018-03-14T13:15:47.825Z,9.97
2018-03-14T13:18:16.215Z,11.30
2018-03-14T13:20:44.680Z,11.30
2018-03-14T13:23:13.126Z,12.63
2018-03-14T13:25:41.530Z,14.03
2018-03-14T13:28:10.041Z,13.23
2018-03-14T13:30:41.487Z,14.37
2018-03-14T13:33:10.899Z,10.47
2018-03-14T13:35:39.287Z,16.37
2018-03-14T13:38:07.712Z,16.70
2018-03-14T13:40:36.103Z,16.00
2018-03-14T13:43:04.507Z,14.27
2018-03-14T13:45:33.377Z,13.70
2018-03-14T13:48:01.810Z,15.00
2018-03-14T13:50:30.231Z,13.10
2018-03-14T13:52:58.749Z,12.50
2018-03-14T13:55:27.157Z,12.30
2018-03-14T13:57:55.608Z,13.43
2018-03-14T14:00:24.012Z,12.67
2018-03-14T14:02:52.480Z,12.10
2018-03-14T14:05:21.047Z,15.83
2018-03-14T14:07:49.434Z,12.87
2018-03-14T14:10:17.948Z,13.30
2018-03-14T14:12:46.353Z,17.23
2018-03-14T14:15:14.760Z,13.27
2018-03-14T14:17:43.199Z,11.80
2018-03-14T14:20:11.577Z,12.73
2018-03-14T14:22:40.140Z,14.60
2018-03-14T14:25:08.556Z,18.77
2018-03-14T14:27:37.027Z,13.87
2018-03-14T14:30:05.403Z,14.40
2018-03-14T14:32:33.909Z,15.50
2018-03-14T14:35:02.389Z,33.50
2018-03-14T14:37:30.816Z,21.90
2018-03-14T14:39:59.233Z,14.70
2018-03-14T14:42:27.704Z,14.60
2018-03-14T14:44:56.108Z,14.03
2018-03-14T14:47:24.602Z,15.00
2018-03-14T14:49:53.044Z,10.97
2018-03-14T14:52:21.502Z,13.50
2018-03-14T14:54:49.928Z,16.50
2018-03-14T14:57:18.348Z,13.80
2018-03-14T14:59:46.826Z,12.47
2018-03-14T15:02:15.242Z,13.13
2018-03-14T15:04:43.688Z,26.13
2018-03-14T15:07:12.111Z,9.60
2018-03-14T15:09:40.585Z,13.40
2018-03-14T15:12:09.094Z,10.83
2018-03-14T15:14:37.490Z,9.03
2018-03-14T15:17:06.024Z,9.40
2018-03-14T15:19:34.469Z,10.57
2018-03-14T15:22:02.864Z,9.13
2018-03-14T15:24:31.389Z,9.50
2018-03-14T15:26:59.835Z,9.70
2018-03-14T15:29:28.218Z,9.30
2018-03-14T15:31:56.746Z,10.50
2018-03-14T15:34:25.196Z,11.03
2018-03-14T15:36:53.668Z,12.37
2018-03-14T15:39:22.058Z,19.60
2018-03-14T15:41:50.455Z,12.40
2018-03-14T15:44:18.868Z,11.97
2018-03-14T15:46:47.280Z,11.97
2018-03-14T15:49:15.748Z,12.60
2018-03-14T15:51:44.159Z,17.00
2018-03-14T15:54:12.521Z,11.97
2018-03-14T15:56:40.995Z,12.50
2018-03-14T15:59:09.476Z,14.67
2018-03-14T16:01:38.064Z,14.87
2018-03-14T16:04:06.512Z,9.13
2018-03-14T16:06:34.929Z,14.17
2018-03-14T16:09:03.335Z,12.40
2018-03-14T16:11:31.741Z,10.73
2018-03-14T16:14:00.344Z,16.00
2018-03-14T16:16:28.756Z,9.40
2018-03-14T16:18:57.230Z,9.97
2018-03-14T16:21:25.636Z,10.00
2018-03-14T16:23:54.069Z,13.20
2018-03-14T16:26:22.489Z,12.13
2018-03-14T16:28:50.891Z,9.67
2018-03-14T16:31:19.459Z,11.37
2018-03-14T16:33:49.033Z,13.73
2018-03-14T16:36:17.493Z,12.77
2018-03-14T16:38:45.897Z,10.87
2018-03-14T16:41:14.314Z,16.40
2018-03-14T16:43:42.880Z,12.67
2018-03-14T16:46:11.271Z,12.37
2018-03-14T16:48:39.727Z,16.50
2018-03-14T16:51:08.159Z,14.00
2018-03-14T16:53:36.556Z,11.90
2018-03-14T16:56:04.965Z,11.97
2018-03-14T16:58:33.378Z,17.63
2018-03-14T17:01:01.871Z,12.10
2018-03-14T17:03:30.306Z,13.70
2018-03-14T17:05:58.703Z,13.87
2018-03-14T17:08:27.099Z,24.17
2018-03-14T17:10:55.598Z,16.80
2018-03-14T17:13:24.055Z,17.87
2018-03-14T17:15:52.473Z,18.53
2018-03-14T17:18:20.996Z,25.40
2018-03-14T17:20:49.548Z,28.63
2018-03-14T17:23:18.030Z,32.00
2018-03-14T17:25:47.888Z,32.40
2018-03-14T17:28:16.346Z,28.17
2018-03-14T17:30:44.864Z,21.00
2018-03-14T17:33:13.260Z,25.27
2018-03-14T17:35:41.678Z,28.57
2018-03-14T17:38:10.080Z,29.13
2018-03-14T17:40:50.583Z,36.10
2018-03-14T17:43:19.009Z,34.77
2018-03-14T17:45:47.546Z,40.77
2018-03-14T17:48:16.000Z,32.50
2018-03-14T17:50:44.438Z,37.00
2018-03-14T17:53:12.880Z,28.92
2018-03-14T17:55:41.313Z,22.23
2018-03-14T17:58:09.820Z,24.10
2018-03-14T18:00:38.395Z,31.33
2018-03-14T18:03:06.828Z,28.52
2018-03-14T18:05:35.256Z,36.97
2018-03-14T18:08:03.735Z,29.30
2018-03-14T18:10:32.181Z,25.20
2018-03-14T18:13:00.580Z,23.67
2018-03-14T18:15:29.047Z,23.90
2018-03-14T18:17:57.452Z,29.60
2018-03-14T18:20:25.854Z,25.92
2018-03-14T18:22:54.340Z,29.87
2018-03-14T18:25:22.809Z,39.88
2018-03-14T18:27:51.432Z,38.00
2018-03-14T18:30:19.891Z,27.33
2018-03-14T18:32:48.354Z,29.33
2018-03-14T18:35:16.780Z,25.45
2018-03-14T18:37:45.189Z,26.60
2018-03-14T18:40:13.664Z,26.70
2018-03-14T18:42:42.089Z,30.33
2018-03-14T18:45:10.492Z,29.05
2018-03-14T18:47:38.988Z,28.65
2018-03-14T18:50:07.424Z,24.55
2018-03-14T18:52:35.954Z,25.85
2018-03-14T18:55:04.343Z,23.48
2018-03-14T18:57:32.935Z,25.73
2018-03-14T19:00:01.360Z,31.85
2018-03-14T19:02:29.808Z,33.75
2018-03-14T19:04:58.242Z,29.27
2018-03-14T19:07:26.665Z,29.75
2018-03-14T19:09:55.073Z,29.42
2018-03-14T19:12:23.569Z,31.12
2018-03-14T19:14:51.970Z,31.60
2018-03-14T19:17:20.514Z,32.85
2018-03-14T19:19:48.905Z,36.63
2018-03-14T19:22:17.371Z,34.58
2018-03-14T19:24:45.751Z,32.00
2018-03-14T19:27:14.245Z,31.80
2018-03-14T19:29:42.708Z,36.85
2018-03-14T19:32:11.092Z,29.20
2018-03-14T19:34:39.589Z,30.98
2018-03-14T19:37:08.010Z,42.75
2018-03-14T19:39:36.399Z,38.45
2018-03-14T19:42:04.976Z,33.55
2018-03-14T19:44:33.473Z,32.42
2018-03-14T19:47:01.859Z,38.40
2018-03-14T19:49:30.220Z,31.98
2018-03-14T19:51:58.586Z,39.47
2018-03-14T19:54:27.010Z,35.22
2018-03-14T19:56:55.368Z,33.97
2018-03-14T19:59:23.838Z,35.35
2018-03-14T20:01:52.263Z,40.03
2018-03-14T20:04:20.665Z,39.65
2018-03-14T20:06:49.133Z,39.60
2018-03-14T20:09:17.637Z,42.62
2018-03-14T20:11:46.124Z,45.80
2018-03-14T20:14:14.544Z,36.08
2018-03-14T20:16:42.919Z,44.13
2018-03-14T20:19:11.569Z,46.17
2018-03-14T20:21:40.057Z,38.75
2018-03-14T20:24:08.487Z,39.65
2018-03-14T20:26:36.890Z,39.60
2018-03-14T20:29:05.562Z,38.00
2018-03-14T20:31:34.151Z,39.60
2018-03-14T20:34:02.581Z,40.65
2018-03-14T20:36:31.058Z,41.67
2018-03-14T20:38:59.513Z,43.45
2018-03-14T20:41:27.921Z,50.28
2018-03-14T20:43:56.393Z,51.00
2018-03-14T20:46:24.850Z,44.13
2018-03-14T20:48:53.258Z,50.25
2018-03-14T20:51:21.660Z,50.60
2018-03-14T20:53:50.155Z,48.20
2018-03-14T20:56:18.611Z,48.58
2018-03-14T20:58:47.058Z,45.78
2018-03-14T21:01:15.496Z,48.20
2018-03-14T21:03:43.924Z,53.80
2018-03-14T21:06:12.325Z,43.55
2018-03-14T21:08:41.664Z,49.13
2018-03-14T21:11:10.051Z,50.80
2018-03-14T21:13:38.441Z,48.25
2018-03-14T21:16:06.835Z,55.38
2018-03-14T21:18:35.286Z,54.38
2018-03-14T21:21:03.696Z,58.63
2018-03-14T21:23:32.306Z,61.92
2018-03-14T21:26:00.747Z,56.25
2018-03-14T21:28:29.186Z,60.17
2018-03-14T21:30:57.581Z,63.97
2018-03-14T21:33:26.000Z,67.03
2018-03-14T21:35:54.480Z,59.63
2018-03-14T21:38:22.991Z,62.17
2018-03-14T21:40:51.389Z,56.83
2018-03-14T21:43:19.752Z,69.47
2018-03-14T21:45:48.145Z,63.55
2018-03-14T21:48:16.546Z,70.03
2018-03-14T21:50:44.921Z,73.20
2018-03-14T21:53:13.324Z,69.30
2018-03-14T21:55:41.800Z,73.20
2018-03-14T21:58:10.289Z,66.05
2018-03-14T22:00:38.690Z,68.75
2018-03-14T22:03:07.092Z,64.40
2018-03-14T22:08:10.143Z,63.50
2018-03-14T22:10:38.541Z,58.53
2018-03-14T22:13:06.974Z,67.57
2018-03-14T22:15:35.375Z,73.07
2018-03-14T22:18:03.781Z,67.95
2018-03-14T22:20:32.232Z,62.70
2018-03-14T22:23:00.714Z,63.35
2018-03-14T22:25:29.099Z,61.35
2018-03-14T22:27:57.596Z,64.47
2018-03-14T22:30:26.010Z,58.78
2018-03-14T22:32:54.467Z,59.35
2018-03-14T22:35:22.842Z,65.00
2018-03-14T22:37:51.223Z,54.38
2018-03-14T22:40:19.679Z,68.40
2018-03-14T22:42:48.095Z,52.22
2018-03-14T22:45:16.657Z,63.15
2018-03-14T22:47:45.122Z,60.72
2018-03-14T22:50:13.571Z,59.13
2018-03-14T22:52:42.006Z,56.22
2018-03-14T22:55:10.392Z,50.67
2018-03-14T22:57:38.804Z,62.78
2018-03-14T23:00:07.159Z,56.10
2018-03-14T23:02:35.643Z,59.20
2018-03-14T23:05:04.044Z,56.67
2018-03-14T23:07:32.455Z,59.95
2018-03-14T23:10:00.931Z,56.08
2018-03-14T23:12:29.311Z,60.63
2018-03-14T23:14:57.835Z,53.30
2018-03-14T23:17:26.211Z,56.15
2018-03-14T23:19:54.724Z,57.65
2018-03-14T23:22:23.131Z,56.15
2018-03-14T23:24:51.528Z,55.40
2018-03-14T23:27:19.913Z,55.60
2018-03-14T23:29:48.290Z,49.67
2018-03-14T23:32:16.767Z,48.38
2018-03-14T23:34:45.140Z,49.08
2018-03-14T23:37:13.581Z,48.10
2018-03-14T23:39:41.924Z,54.08
2018-03-14T23:42:10.323Z,53.90
2018-03-14T23:44:38.768Z,48.00
2018-03-14T23:47:07.165Z,49.03
2018-03-14T23:49:35.552Z,47.78
2018-03-14T23:52:03.962Z,54.63
2018-03-14T23:54:32.323Z,46.22
2018-03-14T23:57:00.765Z,48.47
2018-03-14T23:59:29.165Z,41.72
